sensor_id;sensor_type;location;lat;lon;timestamp;pressure;altitude;pressure_sealevel;temperature;humidity
63006;BME280;53704;52.532;6.426;2022-08-18T00:01:23;101228.63;;;18.09;100.00
63006;BME280;53704;52.532;6.426;2022-08-18T00:03:49;101237.50;;;18.31;98.25
63006;BME280;53704;52.532;6.426;2022-08-18T00:06:16;101242.09;;;18.31;99.14
63006;BME280;53704;52.532;6.426;2022-08-18T00:08:42;101241.91;;;18.39;98.41
63006;BME280;53704;52.532;6.426;2022-08-18T00:11:07;101240.22;;;18.31;98.07
63006;BME280;53704;52.532;6.426;2022-08-18T00:13:33;101245.22;;;18.21;99.02
63006;BME280;53704;52.532;6.426;2022-08-18T00:15:59;101243.38;;;18.35;99.31
63006;BME280;53704;52.532;6.426;2022-08-18T00:18:24;101234.38;;;18.54;97.23
63006;BME280;53704;52.532;6.426;2022-08-18T00:20:50;101239.34;;;18.24;98.49
63006;BME280;53704;52.532;6.426;2022-08-18T00:23:15;101231.84;;;18.39;97.79
63006;BME280;53704;52.532;6.426;2022-08-18T00:25:41;101231.81;;;18.26;98.64
63006;BME280;53704;52.532;6.426;2022-08-18T00:28:06;101231.44;;;18.42;97.84
63006;BME280;53704;52.532;6.426;2022-08-18T00:30:32;101225.13;;;18.29;98.64
63006;BME280;53704;52.532;6.426;2022-08-18T00:32:59;101219.19;;;18.18;99.69
63006;BME280;53704;52.532;6.426;2022-08-18T00:35:28;101214.41;;;18.27;98.39
63006;BME280;53704;52.532;6.426;2022-08-18T00:37:57;101210.38;;;18.10;99.77
63006;BME280;53704;52.532;6.426;2022-08-18T00:40:26;101212.69;;;18.06;100.00
63006;BME280;53704;52.532;6.426;2022-08-18T00:42:58;101203.22;;;17.95;100.00
63006;BME280;53704;52.532;6.426;2022-08-18T00:45:29;101213.38;;;17.80;100.00
63006;BME280;53704;52.532;6.426;2022-08-18T00:47:59;101215.75;;;17.89;100.00
63006;BME280;53704;52.532;6.426;2022-08-18T00:50:34;101222.25;;;17.88;100.00
63006;BME280;53704;52.532;6.426;2022-08-18T00:53:08;101221.50;;;18.21;100.00
63006;BME280;53704;52.532;6.426;2022-08-18T00:55:35;101237.44;;;18.18;100.00
63006;BME280;53704;52.532;6.426;2022-08-18T00:58:07;101233.28;;;18.22;100.00
63006;BME280;53704;52.532;6.426;2022-08-18T01:00:35;101235.34;;;18.20;100.00
63006;BME280;53704;52.532;6.426;2022-08-18T01:03:05;101233.22;;;18.15;100.00
63006;BME280;53704;52.532;6.426;2022-08-18T01:05:36;101229.56;;;17.88;100.00
63006;BME280;53704;52.532;6.426;2022-08-18T01:08:06;101230.50;;;18.08;100.00
63006;BME280;53704;52.532;6.426;2022-08-18T01:10:35;101225.91;;;18.09;100.00
63006;BME280;53704;52.532;6.426;2022-08-18T01:13:01;101232.09;;;17.89;100.00
63006;BME280;53704;52.532;6.426;2022-08-18T01:15:27;101223.22;;;17.81;100.00
63006;BME280;53704;52.532;6.426;2022-08-18T01:17:54;101226.31;;;18.06;100.00
63006;BME280;53704;52.532;6.426;2022-08-18T01:21:03;101231.72;;;17.99;100.00
63006;BME280;53704;52.532;6.426;2022-08-18T01:23:43;101223.44;;;18.34;99.77
63006;BME280;53704;52.532;6.426;2022-08-18T01:26:10;101226.94;;;18.15;100.00
63006;BME280;53704;52.532;6.426;2022-08-18T01:28:38;101224.84;;;18.17;100.00
63006;BME280;53704;52.532;6.426;2022-08-18T01:31:05;101224.25;;;18.21;99.38
63006;BME280;53704;52.532;6.426;2022-08-18T01:33:36;101226.00;;;18.42;98.86
63006;BME280;53704;52.532;6.426;2022-08-18T01:36:14;101228.66;;;18.29;98.52
63006;BME280;53704;52.532;6.426;2022-08-18T01:38:42;101227.38;;;18.18;99.16
63006;BME280;53704;52.532;6.426;2022-08-18T01:41:08;101231.81;;;18.26;99.28
63006;BME280;53704;52.532;6.426;2022-08-18T01:43:34;101229.34;;;18.44;99.23
63006;BME280;53704;52.532;6.426;2022-08-18T01:46:00;101210.94;;;18.67;96.97
63006;BME280;53704;52.532;6.426;2022-08-18T01:48:29;101217.81;;;18.56;97.46
63006;BME280;53704;52.532;6.426;2022-08-18T01:50:59;101221.81;;;18.53;97.89
63006;BME280;53704;52.532;6.426;2022-08-18T01:53:25;101226.63;;;18.44;98.17
63006;BME280;53704;52.532;6.426;2022-08-18T01:55:51;101233.56;;;18.54;97.46
63006;BME280;53704;52.532;6.426;2022-08-18T01:58:18;101232.69;;;18.47;98.20
63006;BME280;53704;52.532;6.426;2022-08-18T02:00:43;101221.38;;;18.56;98.40
63006;BME280;53704;52.532;6.426;2022-08-18T02:03:12;101231.78;;;18.13;100.00
63006;BME280;53704;52.532;6.426;2022-08-18T02:05:44;101223.00;;;18.24;100.00
63006;BME280;53704;52.532;6.426;2022-08-18T02:08:11;101215.53;;;18.59;97.69
63006;BME280;53704;52.532;6.426;2022-08-18T02:10:37;101224.84;;;18.17;99.88
63006;BME280;53704;52.532;6.426;2022-08-18T02:13:04;101225.47;;;18.12;100.00
63006;BME280;53704;52.532;6.426;2022-08-18T02:15:30;101229.03;;;18.13;100.00
63006;BME280;53704;52.532;6.426;2022-08-18T02:17:55;101220.94;;;18.39;100.00
63006;BME280;53704;52.532;6.426;2022-08-18T02:20:21;101236.28;;;18.47;98.92
63006;BME280;53704;52.532;6.426;2022-08-18T02:22:47;101239.00;;;18.54;98.08
63006;BME280;53704;52.532;6.426;2022-08-18T02:25:14;101239.97;;;18.26;99.72
63006;BME280;53704;52.532;6.426;2022-08-18T02:27:40;101234.38;;;18.48;99.73
63006;BME280;53704;52.532;6.426;2022-08-18T02:30:09;101226.41;;;18.53;98.59
63006;BME280;53704;52.532;6.426;2022-08-18T02:32:35;101228.22;;;18.19;100.00
63006;BME280;53704;52.532;6.426;2022-08-18T02:35:03;101232.41;;;18.15;100.00
63006;BME280;53704;52.532;6.426;2022-08-18T02:37:28;101228.63;;;18.16;100.00
63006;BME280;53704;52.532;6.426;2022-08-18T02:39:55;101229.75;;;18.41;100.00
63006;BME280;53704;52.532;6.426;2022-08-18T02:42:21;101232.69;;;18.33;99.79
63006;BME280;53704;52.532;6.426;2022-08-18T02:44:47;101230.56;;;18.22;100.00
63006;BME280;53704;52.532;6.426;2022-08-18T02:47:13;101236.22;;;18.34;100.00
63006;BME280;53704;52.532;6.426;2022-08-18T02:49:38;101221.59;;;18.55;100.00
63006;BME280;53704;52.532;6.426;2022-08-18T02:52:04;101242.38;;;18.62;98.18
63006;BME280;53704;52.532;6.426;2022-08-18T02:54:30;101233.56;;;18.60;99.21
63006;BME280;53704;52.532;6.426;2022-08-18T02:56:56;101234.91;;;18.91;95.75
63006;BME280;53704;52.532;6.426;2022-08-18T02:59:23;101227.94;;;18.82;95.74
63006;BME280;53704;52.532;6.426;2022-08-18T03:01:51;101230.78;;;18.27;98.37
63006;BME280;53704;52.532;6.426;2022-08-18T03:04:25;101218.88;;;18.55;97.80
63006;BME280;53704;52.532;6.426;2022-08-18T03:06:53;101231.28;;;18.77;96.12
63006;BME280;53704;52.532;6.426;2022-08-18T03:09:20;101228.16;;;18.80;96.25
63006;BME280;53704;52.532;6.426;2022-08-18T03:11:45;101228.13;;;18.67;96.47
63006;BME280;53704;52.532;6.426;2022-08-18T03:14:12;101236.28;;;18.67;97.52
63006;BME280;53704;52.532;6.426;2022-08-18T03:16:40;101234.78;;;18.44;98.69
63006;BME280;53704;52.532;6.426;2022-08-18T03:19:06;101237.13;;;18.61;97.56
63006;BME280;53704;52.532;6.426;2022-08-18T03:21:32;101233.56;;;18.67;97.60
63006;BME280;53704;52.532;6.426;2022-08-18T03:24:02;101233.38;;;18.62;97.47
63006;BME280;53704;52.532;6.426;2022-08-18T03:26:29;101228.72;;;18.56;98.20
63006;BME280;53704;52.532;6.426;2022-08-18T03:28:56;101237.09;;;18.41;99.09
63006;BME280;53704;52.532;6.426;2022-08-18T03:31:23;101235.66;;;18.58;99.23
63006;BME280;53704;52.532;6.426;2022-08-18T03:33:50;101240.25;;;18.58;98.38
63006;BME280;53704;52.532;6.426;2022-08-18T03:36:22;101249.91;;;18.47;99.81
63006;BME280;53704;52.532;6.426;2022-08-18T03:38:49;101246.97;;;18.49;99.79
63006;BME280;53704;52.532;6.426;2022-08-18T03:41:18;101256.13;;;18.34;100.00
63006;BME280;53704;52.532;6.426;2022-08-18T03:43:44;101248.75;;;18.15;100.00
63006;BME280;53704;52.532;6.426;2022-08-18T03:46:13;101259.31;;;18.31;100.00
63006;BME280;53704;52.532;6.426;2022-08-18T03:48:40;101265.38;;;18.26;100.00
63006;BME280;53704;52.532;6.426;2022-08-18T03:51:19;101260.97;;;18.39;100.00
63006;BME280;53704;52.532;6.426;2022-08-18T03:53:47;101256.59;;;18.44;99.72
63006;BME280;53704;52.532;6.426;2022-08-18T03:56:20;101250.28;;;18.37;100.00
63006;BME280;53704;52.532;6.426;2022-08-18T03:58:48;101252.19;;;18.37;100.00
63006;BME280;53704;52.532;6.426;2022-08-18T04:01:16;101258.44;;;18.31;100.00
63006;BME280;53704;52.532;6.426;2022-08-18T04:03:43;101252.59;;;18.40;99.82
63006;BME280;53704;52.532;6.426;2022-08-18T04:06:17;101253.88;;;18.44;100.00
63006;BME280;53704;52.532;6.426;2022-08-18T04:08:43;101257.00;;;18.35;100.00
63006;BME280;53704;52.532;6.426;2022-08-18T04:11:11;101265.56;;;18.25;100.00
63006;BME280;53704;52.532;6.426;2022-08-18T04:13:37;101262.13;;;18.03;100.00
63006;BME280;53704;52.532;6.426;2022-08-18T04:16:04;101267.81;;;18.15;100.00
63006;BME280;53704;52.532;6.426;2022-08-18T04:18:30;101270.22;;;18.31;100.00
63006;BME280;53704;52.532;6.426;2022-08-18T04:20:55;101262.63;;;18.26;100.00
63006;BME280;53704;52.532;6.426;2022-08-18T04:23:23;101267.22;;;18.19;100.00
63006;BME280;53704;52.532;6.426;2022-08-18T04:25:57;101265.69;;;18.03;100.00
63006;BME280;53704;52.532;6.426;2022-08-18T04:28:23;101259.00;;;18.06;100.00
63006;BME280;53704;52.532;6.426;2022-08-18T04:30:49;101256.03;;;18.01;100.00
63006;BME280;53704;52.532;6.426;2022-08-18T04:33:14;101266.91;;;18.01;100.00
63006;BME280;53704;52.532;6.426;2022-08-18T04:35:39;101266.72;;;18.02;100.00
63006;BME280;53704;52.532;6.426;2022-08-18T04:38:05;101273.22;;;18.01;100.00
63006;BME280;53704;52.532;6.426;2022-08-18T04:40:32;101275.06;;;17.94;100.00
63006;BME280;53704;52.532;6.426;2022-08-18T04:42:58;101271.13;;;18.03;100.00
63006;BME280;53704;52.532;6.426;2022-08-18T04:45:25;101273.63;;;17.98;100.00
63006;BME280;53704;52.532;6.426;2022-08-18T04:47:51;101275.59;;;18.18;100.00
63006;BME280;53704;52.532;6.426;2022-08-18T04:50:17;101278.09;;;18.13;100.00
63006;BME280;53704;52.532;6.426;2022-08-18T04:52:42;101282.94;;;18.24;100.00
63006;BME280;53704;52.532;6.426;2022-08-18T04:55:27;101284.16;;;18.08;100.00
63006;BME280;53704;52.532;6.426;2022-08-18T04:57:53;101281.34;;;17.95;100.00
63006;BME280;53704;52.532;6.426;2022-08-18T05:00:19;101291.50;;;18.07;100.00
63006;BME280;53704;52.532;6.426;2022-08-18T05:02:44;101289.97;;;17.98;100.00
63006;BME280;53704;52.532;6.426;2022-08-18T05:05:10;101284.25;;;17.93;100.00
63006;BME280;53704;52.532;6.426;2022-08-18T05:07:35;101291.00;;;17.97;100.00
63006;BME280;53704;52.532;6.426;2022-08-18T05:10:01;101280.91;;;17.91;100.00
63006;BME280;53704;52.532;6.426;2022-08-18T05:12:26;101279.31;;;18.10;100.00
63006;BME280;53704;52.532;6.426;2022-08-18T05:14:53;101286.38;;;17.98;100.00
63006;BME280;53704;52.532;6.426;2022-08-18T05:17:20;101282.47;;;18.14;100.00
63006;BME280;53704;52.532;6.426;2022-08-18T05:19:46;101288.47;;;17.96;100.00
63006;BME280;53704;52.532;6.426;2022-08-18T05:22:12;101284.13;;;18.01;100.00
63006;BME280;53704;52.532;6.426;2022-08-18T05:24:44;101289.56;;;18.01;100.00
63006;BME280;53704;52.532;6.426;2022-08-18T05:27:09;101281.91;;;18.25;100.00
63006;BME280;53704;52.532;6.426;2022-08-18T05:29:35;101280.34;;;18.02;100.00
63006;BME280;53704;52.532;6.426;2022-08-18T05:32:02;101280.84;;;18.26;100.00
63006;BME280;53704;52.532;6.426;2022-08-18T05:34:31;101292.34;;;18.15;100.00
63006;BME280;53704;52.532;6.426;2022-08-18T05:37:37;101286.50;;;18.18;100.00
63006;BME280;53704;52.532;6.426;2022-08-18T05:40:00;101285.69;;;18.24;100.00
63006;BME280;53704;52.532;6.426;2022-08-18T05:42:30;101281.03;;;18.18;100.00
63006;BME280;53704;52.532;6.426;2022-08-18T05:44:59;101282.69;;;18.12;100.00
63006;BME280;53704;52.532;6.426;2022-08-18T05:47:28;101286.09;;;18.21;100.00
63006;BME280;53704;52.532;6.426;2022-08-18T05:50:09;101282.66;;;18.05;100.00
63006;BME280;53704;52.532;6.426;2022-08-18T05:52:42;101285.06;;;18.29;100.00
63006;BME280;53704;52.532;6.426;2022-08-18T05:58:25;101284.16;;;18.15;100.00
63006;BME280;53704;52.532;6.426;2022-08-18T06:01:00;101291.84;;;18.46;100.00
63006;BME280;53704;52.532;6.426;2022-08-18T06:03:48;101289.22;;;18.18;100.00
63006;BME280;53704;52.532;6.426;2022-08-18T06:06:18;101292.25;;;18.43;100.00
63006;BME280;53704;52.532;6.426;2022-08-18T06:08:57;101293.06;;;18.43;100.00
63006;BME280;53704;52.532;6.426;2022-08-18T06:11:25;101290.53;;;18.35;100.00
63006;BME280;53704;52.532;6.426;2022-08-18T06:13:51;101294.78;;;18.44;100.00
63006;BME280;53704;52.532;6.426;2022-08-18T06:16:25;101294.66;;;18.18;100.00
63006;BME280;53704;52.532;6.426;2022-08-18T06:24:50;101285.09;;;18.42;100.00
63006;BME280;53704;52.532;6.426;2022-08-18T06:30:50;101280.13;;;18.52;100.00
63006;BME280;53704;52.532;6.426;2022-08-18T06:41:36;101294.44;;;18.81;99.78
63006;BME280;53704;52.532;6.426;2022-08-18T06:44:16;101294.28;;;19.09;97.95
63006;BME280;53704;52.532;6.426;2022-08-18T06:46:48;101296.19;;;19.09;98.29
63006;BME280;53704;52.532;6.426;2022-08-18T06:49:39;101297.00;;;18.96;98.30
63006;BME280;53704;52.532;6.426;2022-08-18T06:52:34;101294.50;;;19.01;98.31
63006;BME280;53704;52.532;6.426;2022-08-18T06:55:15;101301.03;;;19.20;96.73
63006;BME280;53704;52.532;6.426;2022-08-18T06:58:00;101302.06;;;19.46;95.94
63006;BME280;53704;52.532;6.426;2022-08-18T07:00:28;101317.59;;;19.19;96.30
63006;BME280;53704;52.532;6.426;2022-08-18T07:02:59;101310.25;;;19.46;95.40
63006;BME280;53704;52.532;6.426;2022-08-18T07:05:29;101307.75;;;19.38;96.69
63006;BME280;53704;52.532;6.426;2022-08-18T07:08:19;101312.97;;;19.52;94.16
63006;BME280;53704;52.532;6.426;2022-08-18T07:10:52;101323.69;;;19.27;94.34
63006;BME280;53704;52.532;6.426;2022-08-18T07:13:19;101324.09;;;19.51;92.97
63006;BME280;53704;52.532;6.426;2022-08-18T07:15:46;101327.25;;;19.68;93.80
63006;BME280;53704;52.532;6.426;2022-08-18T07:18:13;101326.41;;;19.47;92.75
63006;BME280;53704;52.532;6.426;2022-08-18T07:20:51;101337.75;;;19.71;92.71
63006;BME280;53704;52.532;6.426;2022-08-18T07:23:24;101329.34;;;19.93;91.92
63006;BME280;53704;52.532;6.426;2022-08-18T07:25:59;101326.19;;;19.82;89.94
63006;BME280;53704;52.532;6.426;2022-08-18T07:28:28;101325.56;;;19.80;90.15
63006;BME280;53704;52.532;6.426;2022-08-18T07:31:10;101329.34;;;19.86;88.34
63006;BME280;53704;52.532;6.426;2022-08-18T07:33:38;101334.34;;;20.09;87.76
63006;BME280;53704;52.532;6.426;2022-08-18T07:36:05;101327.47;;;19.86;87.38
63006;BME280;53704;52.532;6.426;2022-08-18T07:38:42;101331.44;;;19.97;87.59
63006;BME280;53704;52.532;6.426;2022-08-18T07:41:32;101333.84;;;20.25;87.76
63006;BME280;53704;52.532;6.426;2022-08-18T07:44:10;101338.53;;;20.12;86.74
63006;BME280;53704;52.532;6.426;2022-08-18T07:49:23;101341.81;;;20.34;88.31
63006;BME280;53704;52.532;6.426;2022-08-18T07:52:03;101344.25;;;20.55;87.00
63006;BME280;53704;52.532;6.426;2022-08-18T08:02:43;101341.69;;;20.67;83.49
63006;BME280;53704;52.532;6.426;2022-08-18T08:05:41;101343.25;;;20.88;85.66
63006;BME280;53704;52.532;6.426;2022-08-18T08:11:01;101342.47;;;20.81;85.33
63006;BME280;53704;52.532;6.426;2022-08-18T08:13:43;101345.00;;;20.83;85.73
63006;BME280;53704;52.532;6.426;2022-08-18T08:18:56;101349.16;;;20.40;85.25
63006;BME280;53704;52.532;6.426;2022-08-18T08:21:30;101348.38;;;20.78;84.21
63006;BME280;53704;52.532;6.426;2022-08-18T08:24:16;101347.72;;;20.83;82.85
63006;BME280;53704;52.532;6.426;2022-08-18T08:26:52;101355.38;;;20.60;84.34
63006;BME280;53704;52.532;6.426;2022-08-18T08:32:09;101348.66;;;21.59;80.84
63006;BME280;53704;52.532;6.426;2022-08-18T08:37:15;101342.31;;;21.01;82.14
63006;BME280;53704;52.532;6.426;2022-08-18T08:45:01;101340.22;;;21.03;82.48
63006;BME280;53704;52.532;6.426;2022-08-18T08:47:33;101345.22;;;20.81;81.27
63006;BME280;53704;52.532;6.426;2022-08-18T08:50:29;101341.34;;;20.89;82.04
63006;BME280;53704;52.532;6.426;2022-08-18T08:55:45;101344.94;;;20.89;81.69
63006;BME280;53704;52.532;6.426;2022-08-18T09:00:46;101349.66;;;21.07;78.89
63006;BME280;53704;52.532;6.426;2022-08-18T09:19:49;101357.78;;;21.21;78.37
63006;BME280;53704;52.532;6.426;2022-08-18T09:22:50;101356.41;;;21.87;77.77
63006;BME280;53704;52.532;6.426;2022-08-18T09:28:14;101353.19;;;21.72;77.75
63006;BME280;53704;52.532;6.426;2022-08-18T09:36:38;101350.41;;;21.97;75.04
63006;BME280;53704;52.532;6.426;2022-08-18T09:42:27;101351.94;;;22.11;73.57
63006;BME280;53704;52.532;6.426;2022-08-18T09:45:00;101360.47;;;22.03;73.72
63006;BME280;53704;52.532;6.426;2022-08-18T09:49:52;101353.63;;;21.68;74.66
63006;BME280;53704;52.532;6.426;2022-08-18T09:57:23;101364.50;;;22.56;72.44
63006;BME280;53704;52.532;6.426;2022-08-18T09:59:51;101356.66;;;22.90;70.95
63006;BME280;53704;52.532;6.426;2022-08-18T10:15:31;101359.97;;;22.31;72.93
63006;BME280;53704;52.532;6.426;2022-08-18T10:21:22;101363.94;;;22.66;71.84
63006;BME280;53704;52.532;6.426;2022-08-18T10:24:13;101368.94;;;22.38;72.86
63006;BME280;53704;52.532;6.426;2022-08-18T10:29:08;101358.78;;;22.20;73.14
63006;BME280;53704;52.532;6.426;2022-08-18T10:37:11;101365.69;;;22.23;74.59
63006;BME280;53704;52.532;6.426;2022-08-18T10:42:24;101371.75;;;22.50;74.00
63006;BME280;53704;52.532;6.426;2022-08-18T10:45:13;101364.66;;;23.34;71.85
63006;BME280;53704;52.532;6.426;2022-08-18T10:47:40;101367.19;;;23.05;71.17
63006;BME280;53704;52.532;6.426;2022-08-18T10:50:21;101367.81;;;23.49;69.82
63006;BME280;53704;52.532;6.426;2022-08-18T10:58:26;101356.09;;;23.65;70.02
63006;BME280;53704;52.532;6.426;2022-08-18T11:06:38;101371.78;;;23.53;67.11
63006;BME280;53704;52.532;6.426;2022-08-18T11:09:06;101372.00;;;23.63;68.59
63006;BME280;53704;52.532;6.426;2022-08-18T11:11:42;101374.16;;;23.73;67.70
63006;BME280;53704;52.532;6.426;2022-08-18T11:14:44;101381.47;;;23.67;67.71
63006;BME280;53704;52.532;6.426;2022-08-18T11:17:26;101381.69;;;23.66;65.59
63006;BME280;53704;52.532;6.426;2022-08-18T11:19:57;101373.34;;;23.84;68.48
63006;BME280;53704;52.532;6.426;2022-08-18T11:22:28;101374.13;;;23.49;66.76
63006;BME280;53704;52.532;6.426;2022-08-18T11:24:54;101378.28;;;23.40;66.56
63006;BME280;53704;52.532;6.426;2022-08-18T11:27:22;101375.56;;;22.98;67.17
63006;BME280;53704;52.532;6.426;2022-08-18T11:29:49;101378.88;;;23.00;69.78
63006;BME280;53704;52.532;6.426;2022-08-18T11:32:29;101381.91;;;23.41;67.66
63006;BME280;53704;52.532;6.426;2022-08-18T11:37:34;101388.25;;;23.53;66.47
63006;BME280;53704;52.532;6.426;2022-08-18T11:40:02;101390.09;;;22.99;68.05
63006;BME280;53704;52.532;6.426;2022-08-18T11:42:36;101385.66;;;22.67;69.51
63006;BME280;53704;52.532;6.426;2022-08-18T11:47:31;101387.47;;;23.22;67.57
63006;BME280;53704;52.532;6.426;2022-08-18T11:50:07;101386.88;;;22.90;67.72
63006;BME280;53704;52.532;6.426;2022-08-18T11:52:46;101376.00;;;22.95;65.75
63006;BME280;53704;52.532;6.426;2022-08-18T11:55:19;101376.75;;;23.44;64.58
63006;BME280;53704;52.532;6.426;2022-08-18T11:57:56;101375.13;;;23.79;63.01
63006;BME280;53704;52.532;6.426;2022-08-18T12:00:53;101355.13;;;24.19;63.56
63006;BME280;53704;52.532;6.426;2022-08-18T12:03:42;101359.34;;;24.22;63.20
63006;BME280;53704;52.532;6.426;2022-08-18T12:06:25;101360.16;;;25.03;62.85
63006;BME280;53704;52.532;6.426;2022-08-18T12:11:57;101355.09;;;25.29;61.11
63006;BME280;53704;52.532;6.426;2022-08-18T12:14:28;101357.75;;;24.78;63.08
63006;BME280;53704;52.532;6.426;2022-08-18T12:16:54;101365.28;;;25.00;61.07
63006;BME280;53704;52.532;6.426;2022-08-18T12:19:20;101354.16;;;25.06;60.45
63006;BME280;53704;52.532;6.426;2022-08-18T12:21:50;101350.66;;;25.28;62.22
63006;BME280;53704;52.532;6.426;2022-08-18T12:24:21;101356.16;;;24.82;60.34
63006;BME280;53704;52.532;6.426;2022-08-18T12:26:48;101346.63;;;25.02;61.40
63006;BME280;53704;52.532;6.426;2022-08-18T12:29:14;101340.66;;;25.39;61.39
63006;BME280;53704;52.532;6.426;2022-08-18T12:31:41;101336.78;;;24.36;61.79
63006;BME280;53704;52.532;6.426;2022-08-18T12:34:07;101335.91;;;24.48;63.50
63006;BME280;53704;52.532;6.426;2022-08-18T12:36:34;101338.56;;;23.90;63.96
63006;BME280;53704;52.532;6.426;2022-08-18T12:38:59;101328.06;;;23.99;63.58
63006;BME280;53704;52.532;6.426;2022-08-18T12:41:25;101327.41;;;24.49;63.49
63006;BME280;53704;52.532;6.426;2022-08-18T12:43:50;101327.91;;;23.82;63.85
63006;BME280;53704;52.532;6.426;2022-08-18T12:46:18;101318.94;;;23.98;61.49
63006;BME280;53704;52.532;6.426;2022-08-18T12:48:43;101330.91;;;23.57;62.00
63006;BME280;53704;52.532;6.426;2022-08-18T12:51:09;101322.06;;;23.90;60.12
63006;BME280;53704;52.532;6.426;2022-08-18T12:53:35;101331.16;;;24.02;62.00
63006;BME280;53704;52.532;6.426;2022-08-18T12:56:01;101327.56;;;23.66;60.00
63006;BME280;53704;52.532;6.426;2022-08-18T12:58:27;101319.78;;;23.63;62.38
63006;BME280;53704;52.532;6.426;2022-08-18T13:00:52;101320.84;;;24.10;61.88
63006;BME280;53704;52.532;6.426;2022-08-18T13:03:19;101314.59;;;24.26;60.60
63006;BME280;53704;52.532;6.426;2022-08-18T13:05:44;101314.16;;;24.06;63.05
63006;BME280;53704;52.532;6.426;2022-08-18T13:08:16;101315.38;;;23.98;63.03
63006;BME280;53704;52.532;6.426;2022-08-18T13:10:42;101307.94;;;24.10;60.73
63006;BME280;53704;52.532;6.426;2022-08-18T13:13:08;101314.19;;;24.75;60.59
63006;BME280;53704;52.532;6.426;2022-08-18T13:15:34;101304.22;;;24.16;61.41
63006;BME280;53704;52.532;6.426;2022-08-18T13:18:01;101311.16;;;24.48;61.20
63006;BME280;53704;52.532;6.426;2022-08-18T13:20:27;101309.88;;;24.96;61.22
63006;BME280;53704;52.532;6.426;2022-08-18T13:22:53;101316.38;;;24.90;59.55
63006;BME280;53704;52.532;6.426;2022-08-18T13:25:18;101320.50;;;25.21;59.21
63006;BME280;53704;52.532;6.426;2022-08-18T13:27:44;101326.31;;;25.08;58.54
63006;BME280;53704;52.532;6.426;2022-08-18T13:30:13;101317.72;;;25.04;58.82
63006;BME280;53704;52.532;6.426;2022-08-18T13:32:39;101323.69;;;25.47;57.65
63006;BME280;53704;52.532;6.426;2022-08-18T13:35:05;101322.31;;;25.83;57.10
63006;BME280;53704;52.532;6.426;2022-08-18T13:37:31;101327.50;;;26.19;55.11
63006;BME280;53704;52.532;6.426;2022-08-18T13:39:58;101332.41;;;26.61;56.20
63006;BME280;53704;52.532;6.426;2022-08-18T13:42:24;101331.91;;;26.42;55.01
63006;BME280;53704;52.532;6.426;2022-08-18T13:44:54;101328.91;;;26.44;53.24
63006;BME280;53704;52.532;6.426;2022-08-18T13:47:21;101328.28;;;26.64;54.89
63006;BME280;53704;52.532;6.426;2022-08-18T13:49:46;101328.72;;;25.50;56.99
63006;BME280;53704;52.532;6.426;2022-08-18T13:52:12;101332.03;;;25.18;57.66
63006;BME280;53704;52.532;6.426;2022-08-18T13:54:39;101331.56;;;25.38;59.10
63006;BME280;53704;52.532;6.426;2022-08-18T13:57:05;101340.53;;;25.17;59.01
63006;BME280;53704;52.532;6.426;2022-08-18T13:59:30;101348.13;;;25.26;57.26
63006;BME280;53704;52.532;6.426;2022-08-18T14:01:59;101356.38;;;24.92;57.47
63006;BME280;53704;52.532;6.426;2022-08-18T14:04:25;101357.16;;;24.35;57.65
63006;BME280;53704;52.532;6.426;2022-08-18T14:06:52;101350.28;;;25.07;56.90
63006;BME280;53704;52.532;6.426;2022-08-18T14:09:18;101355.66;;;25.82;57.43
63006;BME280;53704;52.532;6.426;2022-08-18T14:11:44;101347.28;;;25.94;56.27
63006;BME280;53704;52.532;6.426;2022-08-18T14:14:11;101341.66;;;26.50;55.59
63006;BME280;53704;52.532;6.426;2022-08-18T14:16:37;101343.34;;;26.51;54.26
63006;BME280;53704;52.532;6.426;2022-08-18T14:19:03;101345.59;;;26.54;53.60
63006;BME280;53704;52.532;6.426;2022-08-18T14:21:50;101351.38;;;26.75;55.50
63006;BME280;53704;52.532;6.426;2022-08-18T14:24:35;101349.06;;;26.94;54.41
63006;BME280;53704;52.532;6.426;2022-08-18T14:27:31;101338.03;;;26.94;54.01
63006;BME280;53704;52.532;6.426;2022-08-18T14:30:09;101336.66;;;26.96;53.54
63006;BME280;53704;52.532;6.426;2022-08-18T14:32:35;101339.56;;;27.12;53.88
63006;BME280;53704;52.532;6.426;2022-08-18T14:35:02;101335.00;;;26.95;54.26
63006;BME280;53704;52.532;6.426;2022-08-18T14:37:29;101337.59;;;27.34;51.73
63006;BME280;53704;52.532;6.426;2022-08-18T14:39:55;101323.53;;;26.81;50.99
63006;BME280;53704;52.532;6.426;2022-08-18T14:42:20;101332.06;;;27.07;51.33
63006;BME280;53704;52.532;6.426;2022-08-18T14:44:47;101321.47;;;26.66;52.97
63006;BME280;53704;52.532;6.426;2022-08-18T14:47:12;101321.91;;;27.13;51.50
63006;BME280;53704;52.532;6.426;2022-08-18T14:49:38;101317.84;;;26.44;51.97
63006;BME280;53704;52.532;6.426;2022-08-18T14:52:04;101322.16;;;25.73;53.59
63006;BME280;53704;52.532;6.426;2022-08-18T14:54:31;101316.47;;;25.80;53.82
63006;BME280;53704;52.532;6.426;2022-08-18T14:56:58;101307.91;;;25.25;54.06
63006;BME280;53704;52.532;6.426;2022-08-18T14:59:26;101305.69;;;25.78;54.35
63006;BME280;53704;52.532;6.426;2022-08-18T15:01:52;101310.09;;;25.40;54.49
63006;BME280;53704;52.532;6.426;2022-08-18T15:04:17;101306.59;;;24.53;56.68
63006;BME280;53704;52.532;6.426;2022-08-18T15:06:43;101303.41;;;25.36;56.01
63006;BME280;53704;52.532;6.426;2022-08-18T15:09:08;101311.84;;;25.46;55.61
63006;BME280;53704;52.532;6.426;2022-08-18T15:11:34;101302.69;;;26.19;55.00
63006;BME280;53704;52.532;6.426;2022-08-18T15:13:59;101304.06;;;26.22;53.73
63006;BME280;53704;52.532;6.426;2022-08-18T15:16:25;101305.28;;;26.09;56.33
63006;BME280;53704;52.532;6.426;2022-08-18T15:18:52;101308.56;;;25.16;54.81